Texas General Land Office
 Texas General Land Office
 George P. Bush, Commissioner

 Oil Spill Prevention
 & Response

Texas Automated Buoy System
Real Time Ocean Observations
Supporting Oil Spill Prevention and
Response since 1995
Geochemical and Environmental Research Group

TABS Buoy D -- Texas Automated Buoy System

TABS Buoy D Conditions at 06/24/2018 16:30 UTC (06/24/2018 11:30 CDT)
27° 56.3760'N   96° 50.5740'W
AA3900 DCS - sensor depth 2m
Water Depth: 60 feet (18 meters)
Speed: 42.42 cm/s (0.82 kts) Direction: 24 °T (NNE) Water Temp: 30°C (85 °F)
System Voltage: 13.3 V Signal Strength: -4.3 dB Ping Count: 141
  


IMPORTANT: Notice to Mariners


Today's Velocity Data (download)

   Date   |  Time  |   East |   North|   Speed|  Dir | WaterT |
          |  (UTC) |  (cm/s)|  (cm/s)|  (cm/s)| (°T) |  (°C)  |
==========+========+========+========+========+======+========+
06/24/2018 02:00:00    20.42    23.63    31.23   40.8   29.6
06/24/2018 02:30:00    18.96    21.03    28.32   42.0   29.6
06/24/2018 03:00:00    19.22    26.36    32.62   36.1   29.5
06/24/2018 03:30:00    17.89    27.22    32.57   33.3   29.5
06/24/2018 04:00:00    23.69    23.39    33.29   45.4   29.5
06/24/2018 04:30:00    17.59    30.92    35.57   29.6   29.5
06/24/2018 05:00:00    20.57    29.97    36.35   34.5   29.5
06/24/2018 05:30:00    19.16    25.65    32.02   36.8   29.5
06/24/2018 06:00:00    21.26    29.38    36.27   35.9   29.4
06/24/2018 06:30:00    28.52    24.33    37.49   49.5   29.4
06/24/2018 07:00:00    23.90    29.86    38.25   38.7   29.4
06/24/2018 07:30:00    24.48    37.23    44.56   33.3   29.4
06/24/2018 08:00:00    29.80    27.53    40.57   47.3   29.4
06/24/2018 08:30:00    32.43    27.81    42.72   49.4   29.4
06/24/2018 09:00:00    31.62    30.21    43.73   46.3   29.4
06/24/2018 09:30:00    26.51    34.30    43.35   37.7   29.4
06/24/2018 10:00:00    27.57    32.48    42.60   40.3   29.4
06/24/2018 10:30:00    23.18    32.01    39.52   35.9   29.4
06/24/2018 11:00:00    22.95    33.17    40.34   34.7   29.4
06/24/2018 11:30:00    28.40    31.64    42.52   41.9   29.4
06/24/2018 12:00:00    30.83    27.59    41.37   48.2   29.3
06/24/2018 12:30:00    20.46    26.35    33.36   37.8   29.3
06/24/2018 13:00:00    25.19    29.78    39.00   40.2   29.3
06/24/2018 13:30:00    24.47    30.95    39.45   38.3   29.3
06/24/2018 14:00:00    19.45    25.54    32.10   37.3   29.3
06/24/2018 14:30:00    25.38    29.93    39.24   40.3   29.3
06/24/2018 15:00:00    29.24    29.18    41.31   45.1   29.3
06/24/2018 15:30:00    24.24    34.43    42.11   35.1   29.4
06/24/2018 16:00:00    24.44    37.88    45.08   32.8   29.4
06/24/2018 16:30:00    17.12    38.81    42.42   23.8   29.5



       
 

Today's Temperature - Salinity Data     (Download)


   Date   |  Time  |   Temp |   Cond |Salinity| Density|SoundVel|
          |  (UTC) |   (°C) | (ms/cm)|        | kg/m^3 |  (m/s) |
==========+========+========+========+========+========+========+
06/24/2018 02:00:00    28.53     5.54    34.02     0.00     0.00
06/24/2018 02:30:00    28.51     5.54    34.03     0.00     0.00
06/24/2018 03:00:00    28.47     5.53    34.04     0.00     0.00
06/24/2018 03:30:00    28.47     5.53    34.04     0.00     0.00
06/24/2018 04:00:00    28.43     5.53    34.05     0.00     0.00
06/24/2018 04:30:00    28.44     5.54    34.08     0.00     0.00
06/24/2018 05:00:00    28.43     5.54    34.09     0.00     0.00
06/24/2018 05:30:00    28.45     5.54    34.08     0.00     0.00
06/24/2018 06:00:00    28.36     5.53    34.12     0.00     0.00
06/24/2018 06:30:00    28.40     5.54    34.11     0.00     0.00
06/24/2018 07:00:00    28.36     5.54    34.14     0.00     0.00
06/24/2018 07:30:00    28.31     5.54    34.19     0.00     0.00
06/24/2018 08:00:00    28.34     5.54    34.20     0.00     0.00
06/24/2018 08:30:00    28.33     5.54    34.19     0.00     0.00
06/24/2018 09:00:00    28.34     5.55    34.21     0.00     0.00
06/24/2018 09:30:00    28.36     5.55    34.23     0.00     0.00
06/24/2018 10:00:00    28.35     5.55    34.22     0.00     0.00
06/24/2018 10:30:00    28.34     5.55    34.21     0.00     0.00
06/24/2018 11:00:00    28.33     5.54    34.20     0.00     0.00
06/24/2018 11:30:00    28.29     5.54    34.22     0.00     0.00
06/24/2018 12:00:00    28.27     5.54    34.21     0.00     0.00
06/24/2018 12:30:00    28.26     5.54    34.21     0.00     0.00
06/24/2018 13:00:00    28.25     5.54    34.23     0.00     0.00
06/24/2018 13:30:00    28.24     5.54    34.22     0.00     0.00
06/24/2018 14:00:00    28.25     5.54    34.23     0.00     0.00
06/24/2018 14:30:00    28.27     5.54    34.24     0.00     0.00
06/24/2018 15:00:00    28.33     5.55    34.26     0.00     0.00
06/24/2018 15:30:00    28.37     5.56    34.27     0.00     0.00
06/24/2018 16:00:00    28.41     5.56    34.25     0.00     0.00
06/24/2018 16:30:00    28.46     5.57    34.27     0.00     0.00
06/24/2018 17:00:00    28.54     5.58    34.28     0.00     0.00